createdAt,value
2022-11-26T00:01:01.350Z,7.97
2022-11-26T00:03:47.306Z,9.07
2022-11-26T00:06:39.326Z,10.07
2022-11-26T00:09:25.096Z,10.77
2022-11-26T00:12:22.057Z,13.93
2022-11-26T00:15:26.722Z,13.52
2022-11-26T00:18:13.053Z,12.98
2022-11-26T00:21:01.082Z,13.98
2022-11-26T00:23:46.176Z,13.63
2022-11-26T00:26:32.251Z,12.63
2022-11-26T00:29:17.538Z,13.65
2022-11-26T00:32:02.773Z,13.35
2022-11-26T00:34:48.167Z,12.65
2022-11-26T00:37:40.931Z,13.57
2022-11-26T00:40:28.810Z,13.05
2022-11-26T00:43:15.515Z,14.60
2022-11-26T00:46:00.612Z,14.57
2022-11-26T00:48:45.945Z,13.90
2022-11-26T00:51:31.256Z,13.20
2022-11-26T00:54:18.490Z,13.63
2022-11-26T00:57:03.662Z,13.57
2022-11-26T00:59:48.847Z,12.75
2022-11-26T01:02:33.773Z,15.25
2022-11-26T01:05:20.352Z,16.77
2022-11-26T01:08:20.457Z,16.67
2022-11-26T01:11:05.951Z,16.98
2022-11-26T01:13:52.727Z,16.05
2022-11-26T01:16:42.073Z,16.13
2022-11-26T01:19:27.289Z,17.65
2022-11-26T01:22:21.083Z,17.48
2022-11-26T01:25:06.611Z,18.05
2022-11-26T01:27:52.545Z,18.00
2022-11-26T01:30:38.095Z,16.95
2022-11-26T01:33:23.353Z,16.00
2022-11-26T01:36:28.007Z,17.30
2022-11-26T01:39:19.819Z,16.20
2022-11-26T01:42:32.748Z,16.55
2022-11-26T01:45:20.538Z,17.85
2022-11-26T01:48:28.331Z,18.00
2022-11-26T01:51:15.465Z,17.00
2022-11-26T01:54:00.982Z,16.30
2022-11-26T01:56:52.713Z,15.10
2022-11-26T01:59:42.056Z,13.30
2022-11-26T02:02:29.826Z,12.65
2022-11-26T02:05:20.733Z,11.55
2022-11-26T02:08:06.755Z,10.80
2022-11-26T02:10:52.466Z,10.80
2022-11-26T02:13:37.281Z,10.50
2022-11-26T02:16:40.022Z,9.52
2022-11-26T02:19:49.764Z,10.07
2022-11-26T02:22:43.574Z,13.27
2022-11-26T02:26:07.722Z,14.18
2022-11-26T02:29:20.479Z,14.13
2022-11-26T02:32:13.839Z,14.38
2022-11-26T02:35:06.566Z,13.90
2022-11-26T02:37:55.901Z,13.63
2022-11-26T02:40:41.425Z,13.38
2022-11-26T02:43:27.089Z,13.02
2022-11-26T02:46:18.487Z,14.80
2022-11-26T02:49:04.227Z,14.23
2022-11-26T02:51:54.502Z,13.65
2022-11-26T02:54:41.438Z,14.10
2022-11-26T02:57:30.494Z,14.48
2022-11-26T03:00:16.681Z,14.50
2022-11-26T03:03:08.764Z,14.77
2022-11-26T03:05:58.122Z,14.02
2022-11-26T03:08:45.269Z,12.43
2022-11-26T03:11:30.530Z,12.52
2022-11-26T03:14:15.747Z,12.02
2022-11-26T03:17:00.731Z,12.40
2022-11-26T03:19:46.541Z,11.32
2022-11-26T03:22:31.655Z,12.55
2022-11-26T03:25:16.935Z,12.82
2022-11-26T03:28:02.881Z,13.90
2022-11-26T03:30:50.994Z,13.35
2022-11-26T03:33:35.880Z,13.60
2022-11-26T03:36:21.964Z,14.38
2022-11-26T03:39:07.074Z,13.77
2022-11-26T03:41:52.282Z,13.82
2022-11-26T03:44:37.556Z,12.23
2022-11-26T03:47:22.715Z,13.00
2022-11-26T03:50:08.820Z,12.02
2022-11-26T03:52:53.719Z,12.73
2022-11-26T03:55:38.880Z,11.32
2022-11-26T03:58:23.828Z,11.68
2022-11-26T04:01:12.879Z,12.18
2022-11-26T04:03:58.003Z,11.65
2022-11-26T04:06:43.312Z,11.63
2022-11-26T04:09:28.222Z,11.52
2022-11-26T04:12:13.282Z,12.45
2022-11-26T04:14:58.333Z,12.45
2022-11-26T04:17:43.243Z,12.07
2022-11-26T04:20:28.628Z,11.27
2022-11-26T04:23:13.874Z,11.25
2022-11-26T04:25:58.836Z,11.00
2022-11-26T04:28:44.526Z,10.93
2022-11-26T04:31:29.652Z,11.38
2022-11-26T04:34:14.797Z,11.13
2022-11-26T04:36:59.802Z,11.43
2022-11-26T04:39:44.828Z,11.25
2022-11-26T04:42:29.812Z,11.75
2022-11-26T04:45:15.257Z,11.90
2022-11-26T04:48:00.520Z,11.40
2022-11-26T04:50:45.861Z,13.38
2022-11-26T04:53:31.222Z,11.70
2022-11-26T04:56:16.404Z,12.35
2022-11-26T04:59:01.444Z,12.30
2022-11-26T05:01:47.442Z,12.38
2022-11-26T05:04:32.840Z,11.68
2022-11-26T05:07:18.043Z,11.95
2022-11-26T05:10:05.000Z,12.30
2022-11-26T05:12:50.198Z,11.15
2022-11-26T05:15:35.469Z,10.88
2022-11-26T05:18:20.776Z,12.25
2022-11-26T05:21:06.649Z,11.75
2022-11-26T05:23:51.944Z,10.93
2022-11-26T05:26:37.120Z,10.68
2022-11-26T05:29:22.306Z,11.10
2022-11-26T05:32:07.452Z,11.07
2022-11-26T05:34:55.679Z,10.57
2022-11-26T05:37:43.529Z,11.15
2022-11-26T05:40:28.889Z,11.38
2022-11-26T05:43:14.009Z,11.57
2022-11-26T05:46:07.675Z,11.35
2022-11-26T05:48:53.105Z,11.30
2022-11-26T05:51:38.320Z,13.68
2022-11-26T05:54:23.288Z,11.98
2022-11-26T05:57:08.618Z,11.57
2022-11-26T05:59:53.906Z,11.45
2022-11-26T06:02:39.616Z,10.38
2022-11-26T06:05:24.760Z,11.80
2022-11-26T06:08:10.062Z,11.40
2022-11-26T06:10:55.322Z,11.30
2022-11-26T06:13:40.565Z,11.57
2022-11-26T06:16:25.592Z,10.90
2022-11-26T06:19:11.568Z,11.35
2022-11-26T06:21:56.559Z,11.30
2022-11-26T06:24:41.540Z,10.75
2022-11-26T06:27:26.552Z,11.90
2022-11-26T06:30:12.246Z,9.90
2022-11-26T06:32:57.331Z,9.98
2022-11-26T06:35:42.392Z,10.38
2022-11-26T06:38:28.231Z,10.43
2022-11-26T06:41:13.641Z,9.80
2022-11-26T06:43:59.986Z,9.75
2022-11-26T06:46:45.179Z,9.63
2022-11-26T06:49:30.781Z,9.25
2022-11-26T06:52:15.685Z,9.55
2022-11-26T06:55:00.744Z,10.45
2022-11-26T06:57:49.532Z,9.27
2022-11-26T07:00:34.717Z,8.68
2022-11-26T07:03:23.784Z,9.70
2022-11-26T07:06:23.962Z,10.02
2022-11-26T07:09:10.511Z,10.73
2022-11-26T07:11:55.584Z,9.63
2022-11-26T07:14:40.656Z,10.50
2022-11-26T07:17:27.965Z,11.85
2022-11-26T07:20:14.193Z,10.43
2022-11-26T07:22:59.336Z,9.88
2022-11-26T07:25:44.541Z,10.88
2022-11-26T07:28:30.039Z,10.45
2022-11-26T07:31:18.684Z,10.32
2022-11-26T07:34:04.078Z,9.75
2022-11-26T07:36:49.623Z,9.75
2022-11-26T07:39:34.877Z,10.52
2022-11-26T07:42:20.247Z,9.80
2022-11-26T07:45:05.763Z,9.55
2022-11-26T07:47:51.017Z,10.20
2022-11-26T07:50:36.181Z,11.10
2022-11-26T07:53:21.169Z,10.35
2022-11-26T07:56:06.569Z,10.63
2022-11-26T07:58:52.049Z,13.55
2022-11-26T08:01:37.364Z,15.23
2022-11-26T08:04:22.510Z,12.13
2022-11-26T08:07:07.950Z,9.90
2022-11-26T08:09:52.899Z,9.75
2022-11-26T08:12:37.993Z,9.80
2022-11-26T08:15:23.253Z,10.02
2022-11-26T08:18:08.508Z,8.93
2022-11-26T08:20:58.007Z,8.52
2022-11-26T08:26:35.075Z,8.65
2022-11-26T08:29:21.415Z,8.68
2022-11-26T08:32:06.577Z,7.47
2022-11-26T08:34:51.793Z,7.38
2022-11-26T08:37:36.819Z,7.72
2022-11-26T08:40:21.718Z,7.13
2022-11-26T08:43:09.852Z,8.70
2022-11-26T08:45:57.013Z,7.53
2022-11-26T08:48:42.435Z,5.57
2022-11-26T08:51:27.421Z,7.88
2022-11-26T08:54:12.803Z,7.35
2022-11-26T08:56:58.151Z,8.43
2022-11-26T08:59:43.386Z,7.93
2022-11-26T09:02:28.379Z,7.75
2022-11-26T09:05:13.622Z,7.07
2022-11-26T09:07:58.932Z,7.93
2022-11-26T09:10:53.496Z,8.45
2022-11-26T09:13:38.395Z,7.45
2022-11-26T09:16:24.531Z,7.95
2022-11-26T09:19:12.167Z,8.48
2022-11-26T09:21:58.557Z,8.95
2022-11-26T09:24:43.898Z,8.50
2022-11-26T09:27:29.009Z,9.10
2022-11-26T09:30:16.161Z,8.45
2022-11-26T09:33:01.466Z,7.60
2022-11-26T09:35:46.588Z,8.55
2022-11-26T09:38:31.755Z,8.63
2022-11-26T09:41:32.263Z,9.05
2022-11-26T09:44:26.487Z,8.52
2022-11-26T09:47:17.635Z,7.85
2022-11-26T09:50:17.519Z,8.90
2022-11-26T09:53:12.936Z,8.68
2022-11-26T09:56:00.561Z,9.00
2022-11-26T09:58:49.876Z,8.32
2022-11-26T10:01:34.823Z,8.50
2022-11-26T10:04:31.474Z,9.25
2022-11-26T10:08:03.950Z,8.38
2022-11-26T10:11:01.180Z,9.60
2022-11-26T10:14:04.274Z,8.73
2022-11-26T10:17:20.182Z,9.30
2022-11-26T10:20:21.941Z,9.85
2022-11-26T10:23:13.325Z,8.93
2022-11-26T10:26:27.170Z,9.15
2022-11-26T10:29:21.197Z,8.05
2022-11-26T10:32:14.592Z,7.53
2022-11-26T10:35:00.346Z,6.18
2022-11-26T10:37:45.351Z,5.63
2022-11-26T10:40:32.191Z,4.30
2022-11-26T10:43:21.413Z,3.85
2022-11-26T10:46:06.809Z,3.63
2022-11-26T10:48:52.172Z,4.22
2022-11-26T10:51:37.717Z,3.00
2022-11-26T10:54:35.386Z,3.20
2022-11-26T10:57:20.654Z,2.88
2022-11-26T11:00:06.460Z,3.35
2022-11-26T11:02:51.669Z,3.35
2022-11-26T11:05:37.164Z,3.22
2022-11-26T11:08:31.058Z,3.30
2022-11-26T11:11:25.773Z,3.25
2022-11-26T11:14:29.057Z,2.63
2022-11-26T11:17:39.909Z,3.35
2022-11-26T11:20:34.806Z,3.40
2022-11-26T11:23:35.020Z,2.92
2022-11-26T11:26:43.547Z,3.92
2022-11-26T11:29:28.600Z,3.25
2022-11-26T11:32:34.542Z,4.80
2022-11-26T11:35:19.583Z,5.03
2022-11-26T11:38:04.865Z,2.83
2022-11-26T11:40:50.859Z,3.40
2022-11-26T11:43:37.253Z,2.80
2022-11-26T11:46:22.472Z,2.88
2022-11-26T11:49:07.353Z,2.38
2022-11-26T11:51:58.130Z,2.47
2022-11-26T11:55:01.826Z,2.20
2022-11-26T11:58:17.796Z,3.25
2022-11-26T12:01:40.596Z,2.22
2022-11-26T12:04:56.505Z,2.08
2022-11-26T12:07:52.738Z,2.35
2022-11-26T12:11:02.403Z,2.53
2022-11-26T12:13:52.139Z,2.65
2022-11-26T12:16:42.418Z,2.25
2022-11-26T12:22:49.618Z,2.13
2022-11-26T12:25:37.469Z,2.67
2022-11-26T12:28:27.241Z,3.05
2022-11-26T12:31:24.064Z,3.25
2022-11-26T12:34:23.875Z,3.00
2022-11-26T12:37:21.617Z,2.80
2022-11-26T12:40:39.055Z,3.03
2022-11-26T12:43:43.151Z,2.80
2022-11-26T12:46:42.766Z,2.17
2022-11-26T12:49:35.647Z,2.42
2022-11-26T12:52:47.140Z,2.53
2022-11-26T12:55:41.667Z,2.97
2022-11-26T12:58:56.527Z,2.63
2022-11-26T13:01:41.545Z,2.42
2022-11-26T13:04:43.793Z,2.70
2022-11-26T13:07:41.178Z,3.28
2022-11-26T13:10:33.581Z,2.45
2022-11-26T13:13:42.369Z,2.25
2022-11-26T13:16:40.869Z,2.97
2022-11-26T13:19:34.312Z,1.88
2022-11-26T13:22:48.339Z,2.90
2022-11-26T13:26:04.737Z,2.40
2022-11-26T13:28:52.650Z,2.83
2022-11-26T13:31:50.064Z,2.97
2022-11-26T13:35:00.930Z,2.60
2022-11-26T13:37:55.133Z,3.10
2022-11-26T13:40:46.381Z,3.17
2022-11-26T13:44:07.042Z,2.45
2022-11-26T13:47:06.241Z,2.75
2022-11-26T13:50:17.523Z,2.27
2022-11-26T13:53:06.414Z,2.25
2022-11-26T13:55:59.175Z,2.33
2022-11-26T13:58:49.355Z,3.03
2022-11-26T14:01:42.145Z,2.30
2022-11-26T14:04:47.553Z,2.60
2022-11-26T14:07:37.700Z,2.40
2022-11-26T14:10:35.097Z,2.50
2022-11-26T14:13:20.027Z,1.98
2022-11-26T14:16:09.609Z,2.33
2022-11-26T14:18:58.800Z,2.65
2022-11-26T14:21:58.255Z,2.70
2022-11-26T14:24:49.735Z,2.45
2022-11-26T14:27:40.267Z,2.15
2022-11-26T14:30:27.423Z,2.28
2022-11-26T14:33:18.933Z,2.95
2022-11-26T14:36:18.382Z,2.67
2022-11-26T14:39:12.868Z,2.88
2022-11-26T14:42:04.139Z,2.40
2022-11-26T14:45:17.043Z,2.35
2022-11-26T14:48:03.982Z,2.60
2022-11-26T14:50:49.083Z,2.92
2022-11-26T14:53:35.911Z,2.28
2022-11-26T14:56:24.081Z,2.55
2022-11-26T14:59:15.246Z,2.28
2022-11-26T15:02:00.632Z,2.28
2022-11-26T15:04:46.054Z,2.05
2022-11-26T15:07:31.810Z,2.50
2022-11-26T15:10:20.123Z,2.63
2022-11-26T15:13:12.972Z,2.40
2022-11-26T15:16:03.516Z,2.53
2022-11-26T15:18:52.764Z,2.25
2022-11-26T15:21:40.732Z,2.13
2022-11-26T15:24:26.961Z,2.25
2022-11-26T15:27:29.567Z,2.63
2022-11-26T15:30:19.127Z,2.47
2022-11-26T15:35:56.769Z,2.50
2022-11-26T15:39:08.980Z,2.42
2022-11-26T15:41:56.644Z,2.97
2022-11-26T15:44:42.938Z,2.28
2022-11-26T15:47:29.073Z,1.90
2022-11-26T15:50:36.435Z,3.10
2022-11-26T15:53:28.775Z,2.28
2022-11-26T15:56:20.957Z,2.65
2022-11-26T15:59:14.823Z,3.08
2022-11-26T16:02:14.517Z,3.03
2022-11-26T16:05:03.526Z,2.90
2022-11-26T16:08:21.851Z,2.53
2022-11-26T16:11:19.323Z,2.60
2022-11-26T16:14:23.123Z,2.30
2022-11-26T16:17:16.624Z,3.17
2022-11-26T16:20:01.942Z,3.15
2022-11-26T16:22:49.743Z,2.30
2022-11-26T16:25:36.179Z,2.85
2022-11-26T16:28:21.211Z,3.28
2022-11-26T16:31:06.671Z,2.78
2022-11-26T16:33:51.971Z,2.45
2022-11-26T16:36:41.981Z,2.88
2022-11-26T16:42:23.567Z,3.58
2022-11-26T16:45:09.976Z,2.80
2022-11-26T16:47:55.743Z,2.80
2022-11-26T16:50:40.590Z,3.35
2022-11-26T16:53:25.614Z,3.03
2022-11-26T16:56:26.696Z,3.50
2022-11-26T16:59:19.341Z,3.58
2022-11-26T17:02:06.571Z,3.40
2022-11-26T17:04:52.137Z,2.83
2022-11-26T17:07:46.694Z,3.60
2022-11-26T17:10:31.867Z,3.10
2022-11-26T17:13:17.694Z,2.80
2022-11-26T17:16:04.302Z,3.17
2022-11-26T17:18:50.124Z,3.75
2022-11-26T17:21:35.234Z,4.10
2022-11-26T17:24:24.672Z,3.30
2022-11-26T17:27:15.499Z,3.58
2022-11-26T17:30:00.676Z,2.90
2022-11-26T17:32:45.797Z,2.90
2022-11-26T17:35:31.209Z,2.80
2022-11-26T17:38:21.815Z,2.83
2022-11-26T17:41:07.355Z,2.88
2022-11-26T17:43:52.644Z,3.47
2022-11-26T17:47:00.861Z,3.38
2022-11-26T17:49:42.434Z,3.38
2022-11-26T17:52:27.842Z,3.03
2022-11-26T17:55:13.557Z,3.42
2022-11-26T17:57:58.794Z,2.97
2022-11-26T18:00:43.867Z,3.28
2022-11-26T18:03:29.135Z,2.70
2022-11-26T18:06:35.851Z,3.92
2022-11-26T18:09:21.186Z,3.30
2022-11-26T18:12:08.248Z,3.45
2022-11-26T18:14:54.865Z,3.78
2022-11-26T18:17:39.805Z,3.30
2022-11-26T18:20:27.988Z,3.20
2022-11-26T18:23:13.428Z,3.78
2022-11-26T18:25:58.516Z,3.75
2022-11-26T18:28:43.513Z,3.78
2022-11-26T18:31:29.816Z,3.60
2022-11-26T18:34:14.853Z,3.53
2022-11-26T18:37:00.293Z,3.83
2022-11-26T18:39:45.542Z,3.13
2022-11-26T18:42:38.592Z,3.40
2022-11-26T18:45:24.063Z,3.63
2022-11-26T18:48:09.249Z,4.22
2022-11-26T18:50:58.110Z,3.42
2022-11-26T18:53:44.885Z,3.75
2022-11-26T18:56:29.804Z,3.60
2022-11-26T18:59:15.386Z,3.75
2022-11-26T19:02:01.322Z,4.10
2022-11-26T19:04:46.469Z,4.40
2022-11-26T19:07:33.135Z,3.97
2022-11-26T19:10:18.256Z,3.97
2022-11-26T19:13:03.994Z,4.18
2022-11-26T19:15:49.190Z,3.70
2022-11-26T19:18:35.200Z,3.92
2022-11-26T19:21:25.714Z,4.55
2022-11-26T19:24:11.596Z,3.70
2022-11-26T19:26:56.951Z,4.25
2022-11-26T19:29:42.380Z,4.78
2022-11-26T19:32:28.494Z,3.75
2022-11-26T19:35:13.974Z,3.67
2022-11-26T19:37:59.001Z,5.22
2022-11-26T19:40:44.207Z,4.50
2022-11-26T19:43:32.732Z,4.35
2022-11-26T19:46:21.480Z,4.18
2022-11-26T19:49:07.287Z,4.05
2022-11-26T19:51:53.277Z,3.92
2022-11-26T19:54:38.315Z,4.07
2022-11-26T19:57:23.208Z,4.35
2022-11-26T20:00:09.583Z,4.63
2022-11-26T20:02:54.713Z,4.18
2022-11-26T20:05:40.641Z,3.72
2022-11-26T20:08:25.547Z,4.20
2022-11-26T20:11:11.165Z,4.05
2022-11-26T20:13:57.500Z,4.47
2022-11-26T20:16:44.978Z,4.30
2022-11-26T20:19:30.059Z,3.97
2022-11-26T20:22:15.304Z,4.47
2022-11-26T20:25:00.275Z,4.90
2022-11-26T20:27:45.722Z,4.72
2022-11-26T20:30:31.524Z,4.00
2022-11-26T20:33:18.872Z,4.95
2022-11-26T20:36:09.248Z,5.45
2022-11-26T20:38:56.114Z,4.63
2022-11-26T20:41:41.386Z,4.38
2022-11-26T20:44:28.490Z,4.75
2022-11-26T20:47:13.746Z,4.30
2022-11-26T20:49:59.037Z,4.90
2022-11-26T20:52:44.002Z,4.45
2022-11-26T20:55:29.174Z,4.75
2022-11-26T20:58:14.557Z,4.45
2022-11-26T21:01:01.319Z,4.63
2022-11-26T21:03:46.946Z,4.45
2022-11-26T21:06:34.842Z,5.07
2022-11-26T21:09:20.408Z,4.53
2022-11-26T21:12:05.688Z,4.65
2022-11-26T21:14:51.394Z,4.93
2022-11-26T21:17:36.479Z,4.43
2022-11-26T21:20:21.844Z,5.28
2022-11-26T21:23:08.708Z,4.75
2022-11-26T21:25:54.276Z,4.45
2022-11-26T21:28:39.568Z,4.07
2022-11-26T21:31:26.541Z,4.20
2022-11-26T21:34:12.108Z,5.30
2022-11-26T21:36:57.269Z,4.65
2022-11-26T21:39:42.312Z,5.28
2022-11-26T21:42:27.468Z,4.68
2022-11-26T21:45:12.607Z,3.97
2022-11-26T21:47:57.846Z,4.18
2022-11-26T21:50:42.978Z,4.25
2022-11-26T21:53:27.952Z,4.00
2022-11-26T21:56:14.267Z,4.47
2022-11-26T21:59:00.819Z,3.87
2022-11-26T22:01:47.293Z,4.15
2022-11-26T22:04:32.670Z,4.45
2022-11-26T22:07:18.568Z,4.20
2022-11-26T22:10:04.192Z,4.38
2022-11-26T22:12:49.073Z,4.82
2022-11-26T22:15:34.192Z,4.13
2022-11-26T22:18:19.426Z,5.22
2022-11-26T22:21:07.302Z,3.85
2022-11-26T22:23:52.563Z,4.47
2022-11-26T22:26:38.024Z,4.97
2022-11-26T22:29:22.981Z,4.20
2022-11-26T22:32:09.795Z,4.90
2022-11-26T22:34:55.147Z,4.00
2022-11-26T22:37:40.541Z,5.30
2022-11-26T22:40:25.746Z,4.85
2022-11-26T22:43:10.900Z,4.35
2022-11-26T22:45:56.244Z,4.28
2022-11-26T22:48:42.176Z,4.13
2022-11-26T22:51:29.573Z,4.70
2022-11-26T22:54:16.353Z,4.28
2022-11-26T22:57:01.327Z,3.97
2022-11-26T22:59:46.619Z,4.43
2022-11-26T23:02:31.473Z,4.22
2022-11-26T23:05:16.519Z,4.28
2022-11-26T23:08:01.715Z,4.10
2022-11-26T23:10:48.414Z,4.35
2022-11-26T23:13:34.071Z,3.53
2022-11-26T23:16:21.677Z,3.75
2022-11-26T23:19:07.611Z,3.95
2022-11-26T23:21:52.725Z,3.13
2022-11-26T23:24:37.766Z,2.70
2022-11-26T23:27:22.760Z,3.08
2022-11-26T23:30:08.811Z,2.67
2022-11-26T23:32:53.786Z,2.92
2022-11-26T23:35:38.973Z,3.17
2022-11-26T23:38:24.317Z,2.92
2022-11-26T23:41:09.442Z,2.33
2022-11-26T23:43:54.710Z,2.33
2022-11-26T23:46:40.165Z,2.55
2022-11-26T23:49:24.955Z,2.60
2022-11-26T23:52:10.722Z,2.72
2022-11-26T23:54:56.940Z,2.65
2022-11-26T23:57:41.911Z,2.58
